createdAt,value
2019-04-30T00:03:06.934Z,8.07
2019-04-30T00:07:10.294Z,8.57
2019-04-30T00:11:15.934Z,9.40
2019-04-30T00:15:19.447Z,7.37
2019-04-30T00:19:20.965Z,10.10
2019-04-30T00:23:27.171Z,9.20
2019-04-30T00:27:30.182Z,10.27
2019-04-30T00:31:30.803Z,10.80
2019-04-30T00:35:32.721Z,10.78
2019-04-30T00:39:35.514Z,11.70
2019-04-30T00:43:41.986Z,12.07
2019-04-30T00:47:44.598Z,12.63
2019-04-30T00:51:45.356Z,12.63
2019-04-30T00:55:48.517Z,9.73
2019-04-30T00:59:50.591Z,13.10
2019-04-30T01:03:55.874Z,14.30
2019-04-30T01:07:58.182Z,13.97
2019-04-30T01:12:00.082Z,15.17
2019-04-30T01:16:01.989Z,14.40
2019-04-30T01:20:05.826Z,12.63
2019-04-30T01:24:08.951Z,15.37
2019-04-30T01:28:10.900Z,11.67
2019-04-30T01:32:17.421Z,17.97
2019-04-30T01:36:16.483Z,18.40
2019-04-30T01:40:18.992Z,15.13
2019-04-30T01:44:21.110Z,18.23
2019-04-30T01:48:23.023Z,21.13
2019-04-30T01:52:31.041Z,19.03
2019-04-30T01:56:35.501Z,20.60
2019-04-30T02:00:41.547Z,21.85
2019-04-30T02:04:45.152Z,20.92
2019-04-30T02:08:47.132Z,22.47
2019-04-30T02:13:08.932Z,20.23
2019-04-30T02:17:14.554Z,21.33
2019-04-30T02:21:16.459Z,21.83
2019-04-30T02:25:19.541Z,19.73
2019-04-30T02:29:21.574Z,20.37
2019-04-30T02:33:23.485Z,21.07
2019-04-30T02:37:30.093Z,19.63
2019-04-30T02:41:33.213Z,20.33
2019-04-30T02:45:39.954Z,20.80
2019-04-30T02:49:43.371Z,20.15
2019-04-30T02:54:00.573Z,21.05
2019-04-30T02:58:02.315Z,22.23
2019-04-30T03:02:05.341Z,20.87
2019-04-30T03:06:07.269Z,18.47
2019-04-30T03:10:10.300Z,21.40
2019-04-30T03:14:12.266Z,19.63
2019-04-30T03:18:15.825Z,18.43
2019-04-30T03:22:22.144Z,18.57
2019-04-30T03:26:42.543Z,16.70
2019-04-30T03:31:04.647Z,14.38
2019-04-30T03:35:17.229Z,18.73
2019-04-30T03:39:20.859Z,17.43
2019-04-30T03:43:22.824Z,17.23
2019-04-30T03:47:24.725Z,16.90
2019-04-30T03:51:26.627Z,16.43
2019-04-30T03:55:29.885Z,19.10
2019-04-30T03:59:31.920Z,16.40
2019-04-30T04:03:35.492Z,20.07
2019-04-30T04:07:45.009Z,19.00
2019-04-30T04:11:50.824Z,18.60
2019-04-30T04:15:51.921Z,20.07
2019-04-30T04:19:53.825Z,11.40
2019-04-30T04:23:55.775Z,15.47
2019-04-30T04:28:00.189Z,19.17
2019-04-30T04:32:01.337Z,18.00
2019-04-30T04:36:03.254Z,18.67
2019-04-30T04:40:09.272Z,15.07
2019-04-30T04:44:30.805Z,16.13
2019-04-30T04:48:32.823Z,18.10
2019-04-30T04:52:34.717Z,16.83
2019-04-30T04:56:36.622Z,17.27
2019-04-30T05:00:39.172Z,19.32
2019-04-30T05:04:41.126Z,18.25
2019-04-30T05:08:43.039Z,16.25
2019-04-30T05:12:44.942Z,16.67
2019-04-30T05:16:48.745Z,16.30
2019-04-30T05:20:50.457Z,16.13
2019-04-30T05:24:52.373Z,14.63
2019-04-30T05:28:54.272Z,14.73
2019-04-30T05:32:56.198Z,15.33
2019-04-30T05:36:58.494Z,14.67
2019-04-30T05:41:01.719Z,14.27
2019-04-30T05:45:04.702Z,15.30
2019-04-30T05:49:06.611Z,14.50
2019-04-30T05:53:08.977Z,12.87
2019-04-30T05:57:11.274Z,13.90
2019-04-30T06:01:13.174Z,14.50
2019-04-30T06:05:15.209Z,13.20
2019-04-30T06:09:35.032Z,13.07
2019-04-30T06:13:49.128Z,14.00
2019-04-30T06:18:00.711Z,13.80
2019-04-30T06:22:05.800Z,12.73
2019-04-30T06:26:09.612Z,13.40
2019-04-30T06:30:17.252Z,13.00
2019-04-30T06:34:19.759Z,11.67
2019-04-30T06:38:21.920Z,11.00
2019-04-30T06:42:24.534Z,10.60
2019-04-30T06:46:28.525Z,10.93
2019-04-30T06:50:31.184Z,11.43
2019-04-30T06:54:33.095Z,10.87
2019-04-30T06:58:34.989Z,10.37
2019-04-30T07:02:36.970Z,10.30
2019-04-30T07:06:44.015Z,9.65
2019-04-30T07:10:53.168Z,10.55
2019-04-30T07:14:46.975Z,9.40
2019-04-30T07:18:49.048Z,8.58
2019-04-30T07:22:59.056Z,9.77
2019-04-30T07:26:58.416Z,8.83
2019-04-30T07:31:10.158Z,8.90
2019-04-30T07:35:01.843Z,10.17
2019-04-30T07:39:10.010Z,8.97
2019-04-30T07:43:11.804Z,9.40
2019-04-30T07:47:13.714Z,9.40
2019-04-30T07:51:16.540Z,9.17
2019-04-30T07:55:19.727Z,8.97
2019-04-30T07:59:21.816Z,9.07
2019-04-30T08:03:30.239Z,8.60
2019-04-30T08:07:31.928Z,8.80
2019-04-30T08:11:34.368Z,8.37
2019-04-30T08:15:37.531Z,8.03
2019-04-30T08:19:41.145Z,7.60
2019-04-30T08:23:43.304Z,7.37
2019-04-30T08:27:45.213Z,7.67
2019-04-30T08:31:48.930Z,7.35
2019-04-30T08:35:50.714Z,6.63
2019-04-30T08:39:52.649Z,7.13
2019-04-30T08:43:54.553Z,7.33
2019-04-30T08:47:56.460Z,7.00
2019-04-30T08:51:58.741Z,6.70
2019-04-30T08:56:00.632Z,7.63
2019-04-30T09:00:02.547Z,7.27
2019-04-30T09:04:07.570Z,7.03
2019-04-30T09:08:10.935Z,7.35
2019-04-30T09:12:12.850Z,7.97
2019-04-30T09:16:14.903Z,7.53
2019-04-30T09:20:19.420Z,7.80
2019-04-30T09:24:21.423Z,7.50
2019-04-30T09:28:23.362Z,6.73
2019-04-30T09:32:25.299Z,7.73
2019-04-30T09:36:29.198Z,7.77
2019-04-30T09:40:32.555Z,7.00
2019-04-30T09:44:34.653Z,7.53
2019-04-30T09:48:38.503Z,6.90
2019-04-30T09:52:41.025Z,7.25
2019-04-30T09:56:43.219Z,7.70
2019-04-30T10:00:45.140Z,7.00
2019-04-30T10:04:47.556Z,7.72
2019-04-30T10:08:51.331Z,7.47
2019-04-30T10:12:53.419Z,7.83
2019-04-30T10:17:02.806Z,8.40
2019-04-30T10:21:04.914Z,7.70
2019-04-30T10:25:09.834Z,7.03
2019-04-30T10:29:32.525Z,8.27
2019-04-30T10:33:53.347Z,8.70
2019-04-30T10:38:13.662Z,7.90
2019-04-30T10:42:17.149Z,7.67
2019-04-30T10:46:19.052Z,7.90
2019-04-30T10:50:22.552Z,7.17
2019-04-30T10:54:26.519Z,8.00
2019-04-30T10:58:28.155Z,8.50
2019-04-30T11:02:31.379Z,8.20
2019-04-30T11:06:34.446Z,7.53
2019-04-30T11:10:36.810Z,8.40
2019-04-30T11:14:38.714Z,8.10
2019-04-30T11:18:40.810Z,8.78
2019-04-30T11:22:42.943Z,7.85
2019-04-30T11:26:45.741Z,8.37
2019-04-30T11:30:49.947Z,9.00
2019-04-30T11:34:52.277Z,9.17
2019-04-30T11:38:54.701Z,8.00
2019-04-30T11:42:58.102Z,8.17
2019-04-30T11:47:09.375Z,8.77
2019-04-30T11:51:11.448Z,8.33
2019-04-30T11:55:15.199Z,7.60
2019-04-30T12:03:25.757Z,8.23
2019-04-30T12:07:29.297Z,7.83
2019-04-30T12:11:40.360Z,8.55
2019-04-30T12:15:42.263Z,8.23
2019-04-30T12:19:44.225Z,8.30
2019-04-30T12:23:46.153Z,8.40
2019-04-30T12:27:49.230Z,7.80
2019-04-30T12:31:51.154Z,8.23
2019-04-30T12:35:53.154Z,8.67
2019-04-30T12:39:56.026Z,7.80
2019-04-30T12:43:59.419Z,7.83
2019-04-30T12:48:03.017Z,7.70
2019-04-30T12:52:15.686Z,7.97
2019-04-30T12:56:28.233Z,8.40
2019-04-30T13:00:31.864Z,7.47
2019-04-30T13:04:33.786Z,7.50
2019-04-30T13:08:36.169Z,7.15
2019-04-30T13:12:39.278Z,7.50
2019-04-30T13:16:41.488Z,7.12
2019-04-30T13:20:43.558Z,6.40
2019-04-30T13:24:46.515Z,6.57
2019-04-30T13:28:51.434Z,6.83
2019-04-30T13:33:09.441Z,6.60
2019-04-30T13:37:11.498Z,6.40
2019-04-30T13:41:24.167Z,6.33
2019-04-30T13:45:26.094Z,6.17
2019-04-30T13:49:30.099Z,6.10
2019-04-30T13:53:31.619Z,5.90
2019-04-30T13:57:34.435Z,5.43
2019-04-30T14:01:36.434Z,5.83
2019-04-30T14:05:38.458Z,6.03
2019-04-30T14:09:40.366Z,6.10
2019-04-30T14:13:44.672Z,5.30
2019-04-30T14:17:46.569Z,5.20
2019-04-30T14:22:09.568Z,5.87
2019-04-30T14:26:19.373Z,5.33
2019-04-30T14:30:21.711Z,4.90
2019-04-30T14:34:23.609Z,5.10
2019-04-30T14:38:25.538Z,4.50
2019-04-30T14:42:28.316Z,4.67
2019-04-30T14:46:50.529Z,5.00
2019-04-30T14:50:52.743Z,4.80
2019-04-30T14:55:12.105Z,5.40
2019-04-30T14:59:15.645Z,5.27
2019-04-30T15:03:19.406Z,5.47
2019-04-30T15:07:21.300Z,4.93
2019-04-30T15:11:23.257Z,4.83
2019-04-30T15:15:25.422Z,4.50
2019-04-30T15:19:27.418Z,4.30
2019-04-30T15:23:42.915Z,4.13
2019-04-30T15:27:49.108Z,4.05
2019-04-30T15:31:48.469Z,3.72
2019-04-30T15:35:50.429Z,4.13
2019-04-30T15:39:53.512Z,3.70
2019-04-30T15:43:58.323Z,3.60
2019-04-30T15:48:00.298Z,3.37
2019-04-30T15:52:04.429Z,9.13
2019-04-30T15:56:06.422Z,68.67
2019-04-30T16:00:12.082Z,9.33
2019-04-30T16:04:18.654Z,3.50
2019-04-30T16:08:54.063Z,3.70
2019-04-30T16:13:00.279Z,3.07
2019-04-30T16:17:16.040Z,3.20
2019-04-30T16:21:19.345Z,3.07
2019-04-30T16:25:22.826Z,4.20
2019-04-30T16:29:24.729Z,4.30
2019-04-30T16:33:30.563Z,3.40
2019-04-30T16:37:32.461Z,3.50
2019-04-30T16:41:35.451Z,2.50
2019-04-30T16:45:38.937Z,2.27
2019-04-30T16:49:42.010Z,2.60
2019-04-30T16:53:43.897Z,2.60
2019-04-30T16:57:45.818Z,2.58
2019-04-30T17:01:57.171Z,2.65
2019-04-30T17:06:03.060Z,2.43
2019-04-30T17:10:12.491Z,2.70
2019-04-30T17:14:16.267Z,2.40
2019-04-30T17:18:19.101Z,2.17
2019-04-30T17:22:21.167Z,2.60
2019-04-30T17:26:23.078Z,2.60
2019-04-30T17:30:25.250Z,2.00
2019-04-30T17:34:28.832Z,2.47
2019-04-30T17:38:31.654Z,2.20
2019-04-30T17:42:33.554Z,1.90
2019-04-30T17:46:35.483Z,1.90
2019-04-30T17:50:39.504Z,1.80
2019-04-30T17:54:40.980Z,1.70
2019-04-30T17:58:42.892Z,1.80
2019-04-30T18:02:44.878Z,1.85
2019-04-30T18:06:48.407Z,2.00
2019-04-30T18:11:06.745Z,2.03
2019-04-30T18:15:24.813Z,1.63
2019-04-30T18:19:44.239Z,2.00
2019-04-30T18:23:48.374Z,1.50
2019-04-30T18:27:53.023Z,1.73
2019-04-30T18:31:55.979Z,1.40
2019-04-30T18:35:59.696Z,1.50
2019-04-30T18:40:02.289Z,1.63
2019-04-30T18:44:05.118Z,1.60
2019-04-30T18:48:07.164Z,1.60
2019-04-30T18:52:09.383Z,1.73
2019-04-30T18:56:14.807Z,1.80
2019-04-30T19:00:19.754Z,1.27
2019-04-30T19:04:21.811Z,1.30
2019-04-30T19:08:31.061Z,1.83
2019-04-30T19:12:42.129Z,1.90
2019-04-30T19:16:59.497Z,1.70
2019-04-30T19:21:02.676Z,1.60
2019-04-30T19:25:05.569Z,1.73
2019-04-30T19:29:07.843Z,1.70
2019-04-30T19:33:13.240Z,1.70
2019-04-30T19:37:15.219Z,1.60
2019-04-30T19:41:18.582Z,2.00
2019-04-30T19:45:22.377Z,1.90
2019-04-30T19:49:24.394Z,1.80
2019-04-30T19:53:26.469Z,2.00
2019-04-30T19:57:28.709Z,2.00
2019-04-30T20:01:31.613Z,2.00
2019-04-30T20:05:33.679Z,2.10
2019-04-30T20:09:35.580Z,2.13
2019-04-30T20:13:37.532Z,1.85
2019-04-30T20:17:39.514Z,1.97
2019-04-30T20:21:48.747Z,1.85
2019-04-30T20:25:45.049Z,1.55
2019-04-30T20:29:46.931Z,2.07
2019-04-30T20:33:49.049Z,2.30
2019-04-30T20:38:09.506Z,3.10
2019-04-30T20:42:11.530Z,2.80
2019-04-30T20:46:13.443Z,2.30
2019-04-30T20:50:15.709Z,2.27
2019-04-30T20:54:19.013Z,1.93
2019-04-30T20:58:20.941Z,2.30
2019-04-30T21:02:22.839Z,2.20
2019-04-30T21:06:24.753Z,2.90
2019-04-30T21:10:26.651Z,2.42
2019-04-30T21:14:28.548Z,2.80
2019-04-30T21:18:32.561Z,2.80
2019-04-30T21:22:34.560Z,2.63
2019-04-30T21:26:36.461Z,2.60
2019-04-30T21:30:38.420Z,3.07
2019-04-30T21:34:44.603Z,2.62
2019-04-30T21:38:46.502Z,2.65
2019-04-30T21:42:48.401Z,2.73
2019-04-30T21:46:50.295Z,2.87
2019-04-30T21:50:52.263Z,2.60
2019-04-30T21:54:54.160Z,3.43
2019-04-30T21:58:56.065Z,3.23
2019-04-30T22:02:59.807Z,2.90
2019-04-30T22:07:01.548Z,2.13
2019-04-30T22:11:03.592Z,2.50
2019-04-30T22:15:07.883Z,2.63
2019-04-30T22:19:19.719Z,2.53
2019-04-30T22:23:21.677Z,3.30
2019-04-30T22:27:23.590Z,2.80
2019-04-30T22:31:25.667Z,2.07
2019-04-30T22:35:27.316Z,2.43
2019-04-30T22:39:30.877Z,2.33
2019-04-30T22:43:33.076Z,2.70
2019-04-30T22:47:35.033Z,2.47
2019-04-30T22:51:36.972Z,2.63
2019-04-30T22:55:39.833Z,2.67
2019-04-30T22:59:49.725Z,3.03
2019-04-30T23:03:45.414Z,2.80
2019-04-30T23:07:47.296Z,2.98
2019-04-30T23:11:49.266Z,2.80
2019-04-30T23:15:55.323Z,3.23
2019-04-30T23:19:57.219Z,3.23
2019-04-30T23:23:59.125Z,3.17
2019-04-30T23:28:01.071Z,2.50
2019-04-30T23:32:02.982Z,3.47
2019-04-30T23:36:04.950Z,3.00
2019-04-30T23:40:29.072Z,2.47
2019-04-30T23:44:31.945Z,3.27
2019-04-30T23:48:43.773Z,2.57
2019-04-30T23:52:45.687Z,2.90
2019-04-30T23:56:47.582Z,2.95
